Time;durP1;ratioP1;P1;durP2;ratioP2;P2;SDS_P1;SDS_P2;PMS_P1;PMS_P2;Temp;Humidity;BMP_temperature;BMP_pressure;BME280_temperature;BME280_humidity;BME280_pressure;Samples;Min_cycle;Max_cycle;Signal;HPM_P1;HPM_P2
2022/04/10 00:01:01;;;;;;;9.02;3.97;;;1.90;99.90;;;;;;5069370;28;20037;-70
2022/04/10 00:03:27;;;;;;;7.75;3.20;;;1.90;99.90;;;;;;5057274;28;20087;-69
2022/04/10 00:05:53;;;;;;;16.88;4.45;;;1.90;99.90;;;;;;5058527;28;20075;-69
2022/04/10 00:08:20;;;;;;;11.15;3.97;;;1.80;99.90;;;;;;5058275;28;20456;-70
2022/04/10 00:10:46;;;;;;;16.73;4.10;;;1.80;99.90;;;;;;5058453;28;20738;-71
2022/04/10 00:13:12;;;;;;;12.95;3.65;;;1.80;99.90;;;;;;5057616;28;20137;-71
2022/04/10 00:15:38;;;;;;;22.00;4.63;;;1.80;99.90;;;;;;5058860;28;20072;-71
2022/04/10 00:18:04;;;;;;;16.05;3.83;;;1.80;99.90;;;;;;5048860;28;20033;-69
2022/04/10 00:20:29;;;;;;;9.85;3.22;;;1.80;99.90;;;;;;5045079;28;20045;-69
2022/04/10 00:22:55;;;;;;;17.73;5.07;;;1.80;99.90;;;;;;5044983;28;20029;-69
2022/04/10 00:25:21;;;;;;;15.02;3.47;;;1.80;99.90;;;;;;5043633;28;20041;-68
2022/04/10 00:27:47;;;;;;;14.45;4.43;;;1.70;99.90;;;;;;5044716;28;20292;-69
2022/04/10 00:30:16;;;;;;;16.20;4.15;;;1.70;99.90;;;;;;5045148;28;20033;-69
2022/04/10 00:32:42;;;;;;;14.23;4.18;;;1.80;99.90;;;;;;5051943;28;20513;-69
2022/04/10 00:35:09;;;;;;;12.48;3.92;;;1.70;99.90;;;;;;5043405;28;20485;-69
2022/04/10 00:37:36;;;;;;;16.38;4.05;;;1.70;99.90;;;;;;5048767;28;20029;-69
2022/04/10 00:40:03;;;;;;;17.83;4.22;;;1.80;99.90;;;;;;5044514;28;20048;-69
2022/04/10 00:42:36;;;;;;;21.73;4.38;;;1.70;99.90;;;;;;5054881;28;20044;-69
2022/04/10 00:45:05;;;;;;;14.55;3.38;;;1.70;99.90;;;;;;5062960;28;20051;-69
2022/04/10 00:47:31;;;;;;;22.52;5.55;;;1.70;99.90;;;;;;5056138;28;20047;-69
2022/04/10 00:49:58;;;;;;;15.30;4.13;;;1.70;99.90;;;;;;5065077;28;20048;-69
2022/04/10 00:52:26;;;;;;;12.82;3.92;;;1.70;99.90;;;;;;5056346;28;20037;-69
2022/04/10 00:54:52;;;;;;;19.05;4.38;;;1.70;99.90;;;;;;5046468;28;20430;-69
2022/04/10 00:57:19;;;;;;;16.52;3.65;;;1.70;99.90;;;;;;5049567;28;20104;-69
2022/04/10 00:59:45;;;;;;;16.90;4.22;;;1.60;99.90;;;;;;5051488;28;20093;-69
2022/04/10 01:02:11;;;;;;;14.13;4.43;;;1.70;99.90;;;;;;5047951;28;20040;-69
2022/04/10 01:04:37;;;;;;;17.25;4.65;;;1.70;99.90;;;;;;5063665;28;20051;-69
2022/04/10 01:07:04;;;;;;;19.02;5.15;;;1.70;99.90;;;;;;5060041;28;20052;-69
2022/04/10 01:09:31;;;;;;;16.63;5.07;;;1.70;99.90;;;;;;5044469;28;20033;-69
2022/04/10 01:11:57;;;;;;;11.40;4.68;;;1.70;99.90;;;;;;5045892;28;20068;-69
2022/04/10 01:14:23;;;;;;;10.90;3.75;;;1.70;99.90;;;;;;5063602;28;20044;-69
2022/04/10 01:16:49;;;;;;;13.35;4.25;;;1.70;99.90;;;;;;5052622;28;20045;-69
2022/04/10 01:19:19;;;;;;;15.07;4.95;;;1.60;99.90;;;;;;5064797;28;20102;-69
2022/04/10 01:21:49;;;;;;;23.08;5.10;;;1.60;99.90;;;;;;5051948;28;20696;-69
2022/04/10 01:24:16;;;;;;;21.05;3.78;;;1.60;99.90;;;;;;5043263;28;20121;-68
2022/04/10 01:26:43;;;;;;;16.48;3.92;;;1.50;99.90;;;;;;5048063;28;20044;-69
2022/04/10 01:29:13;;;;;;;13.90;4.40;;;1.60;99.90;;;;;;5046399;28;20040;-69
2022/04/10 01:31:44;;;;;;;14.45;4.35;;;1.60;99.90;;;;;;5041519;28;20065;-69
2022/04/10 01:34:13;;;;;;;19.05;4.70;;;1.60;99.90;;;;;;5043293;28;20082;-69
2022/04/10 01:36:39;;;;;;;21.88;5.75;;;1.60;99.90;;;;;;5043905;28;20041;-68
2022/04/10 01:39:06;;;;;;;18.63;5.00;;;1.60;99.90;;;;;;5043614;28;20684;-68
2022/04/10 01:41:34;;;;;;;9.88;4.43;;;1.60;99.90;;;;;;5043475;28;20052;-69
2022/04/10 01:44:00;;;;;;;21.63;4.47;;;1.70;99.90;;;;;;5043497;28;20048;-69
2022/04/10 01:46:30;;;;;;;15.10;4.53;;;1.60;99.90;;;;;;5041353;28;20049;-69
2022/04/10 01:48:57;;;;;;;17.85;4.38;;;1.60;99.90;;;;;;5052255;28;20037;-72
2022/04/10 01:51:26;;;;;;;18.90;4.40;;;1.60;99.90;;;;;;5042867;28;20037;-71
2022/04/10 01:53:53;;;;;;;15.65;4.20;;;1.60;99.90;;;;;;5044448;28;20574;-72
2022/04/10 01:56:19;;;;;;;13.27;4.43;;;1.60;99.90;;;;;;5043914;28;20045;-71
2022/04/10 01:58:46;;;;;;;12.20;4.05;;;1.60;99.90;;;;;;5055900;28;20041;-71
2022/04/10 02:01:13;;;;;;;10.63;4.28;;;1.70;99.90;;;;;;5041592;28;20060;-71
2022/04/10 02:03:39;;;;;;;16.15;6.10;;;1.70;99.90;;;;;;5041957;28;20049;-71
2022/04/10 02:06:07;;;;;;;12.77;4.72;;;1.70;99.90;;;;;;5041355;28;20114;-69
2022/04/10 02:08:35;;;;;;;15.85;4.18;;;1.80;99.90;;;;;;5042409;28;20626;-71
2022/04/10 02:11:11;;;;;;;21.60;5.85;;;1.70;99.90;;;;;;5043149;28;20044;-71
2022/04/10 02:13:37;;;;;;;22.40;5.30;;;1.60;99.90;;;;;;5050169;28;20040;-71
2022/04/10 02:16:04;;;;;;;11.63;4.00;;;1.60;99.90;;;;;;5056700;28;20060;-71
2022/04/10 02:18:30;;;;;;;13.85;4.32;;;1.70;99.90;;;;;;5042566;28;20029;-71
2022/04/10 02:20:56;;;;;;;15.02;5.00;;;1.70;99.90;;;;;;5042978;28;20033;-71
2022/04/10 02:23:21;;;;;;;10.88;4.47;;;1.70;99.90;;;;;;5046237;28;20131;-71
2022/04/10 02:25:47;;;;;;;14.75;4.40;;;1.70;99.90;;;;;;5062556;28;20131;-71
2022/04/10 02:28:13;;;;;;;26.52;5.20;;;1.60;99.90;;;;;;5055166;28;20128;-71
2022/04/10 02:30:38;;;;;;;15.32;5.13;;;1.60;99.90;;;;;;5040381;28;20048;-71
2022/04/10 02:33:04;;;;;;;12.43;4.35;;;1.50;99.90;;;;;;5042280;28;20033;-72
2022/04/10 02:35:29;;;;;;;12.48;3.65;;;1.60;99.90;;;;;;5043191;28;20167;-71
2022/04/10 02:37:55;;;;;;;13.80;4.32;;;1.50;99.90;;;;;;5033365;28;20083;-71
2022/04/10 02:40:21;;;;;;;14.30;4.03;;;1.50;99.90;;;;;;5042640;28;20049;-71
2022/04/10 02:42:46;;;;;;;11.73;4.25;;;1.50;99.90;;;;;;5041484;28;20037;-71
2022/04/10 02:45:12;;;;;;;17.50;3.97;;;1.60;99.90;;;;;;5058067;28;20044;-71
2022/04/10 02:47:37;;;;;;;10.57;3.78;;;1.60;99.90;;;;;;5062964;28;20036;-71
2022/04/10 02:50:05;;;;;;;17.95;3.97;;;1.70;99.90;;;;;;5047271;28;20049;-71
2022/04/10 02:52:31;;;;;;;11.65;3.83;;;1.70;99.90;;;;;;5042788;28;20040;-71
2022/04/10 02:54:57;;;;;;;12.63;3.80;;;1.60;99.90;;;;;;5055002;28;20048;-71
2022/04/10 02:57:22;;;;;;;14.65;4.22;;;1.60;99.90;;;;;;5059763;28;20044;-71
2022/04/10 02:59:48;;;;;;;14.32;3.00;;;1.60;99.90;;;;;;5045934;28;20041;-71
2022/04/10 03:02:13;;;;;;;8.70;3.83;;;1.70;99.90;;;;;;5041954;28;20068;-71
2022/04/10 03:04:39;;;;;;;17.13;3.90;;;1.60;99.90;;;;;;5069728;28;20029;-71
2022/04/10 03:07:05;;;;;;;17.27;4.13;;;1.60;99.90;;;;;;5059063;28;20053;-70
2022/04/10 03:09:31;;;;;;;13.65;3.58;;;1.60;99.90;;;;;;5047035;28;20037;-70
2022/04/10 03:11:56;;;;;;;16.30;3.80;;;1.60;99.90;;;;;;5040304;28;20036;-70
2022/04/10 03:14:22;;;;;;;10.68;3.72;;;1.70;99.90;;;;;;5041211;28;20045;-70
2022/04/10 03:16:47;;;;;;;15.05;4.18;;;1.60;99.90;;;;;;5041658;28;20051;-70
2022/04/10 03:19:13;;;;;;;27.98;4.95;;;1.60;99.90;;;;;;5046961;28;20037;-70
2022/04/10 03:21:39;;;;;;;14.77;4.90;;;1.50;99.90;;;;;;5040662;28;20040;-70
2022/04/10 03:24:05;;;;;;;18.88;4.00;;;1.50;99.90;;;;;;5040124;28;20051;-71
2022/04/10 03:26:30;;;;;;;15.40;5.25;;;1.60;99.90;;;;;;5041464;28;20044;-71
2022/04/10 03:28:56;;;;;;;15.90;3.95;;;1.60;99.90;;;;;;5040995;28;20037;-70
2022/04/10 03:31:23;;;;;;;12.65;4.40;;;1.70;99.90;;;;;;5039126;28;20485;-70
2022/04/10 03:33:49;;;;;;;15.10;4.70;;;1.70;99.90;;;;;;5041136;28;20075;-71
2022/04/10 03:36:15;;;;;;;17.60;4.00;;;1.70;99.90;;;;;;5042535;28;20045;-70
2022/04/10 03:38:41;;;;;;;12.75;4.18;;;1.70;99.90;;;;;;5040767;28;20103;-70
2022/04/10 03:41:07;;;;;;;14.75;4.18;;;1.70;99.90;;;;;;5039783;28;20041;-70
2022/04/10 03:43:32;;;;;;;11.60;4.00;;;1.70;99.90;;;;;;5040263;28;20037;-70
2022/04/10 03:45:59;;;;;;;13.18;3.50;;;1.60;99.90;;;;;;5041479;28;20110;-70
2022/04/10 03:48:25;;;;;;;15.27;4.07;;;1.70;99.90;;;;;;5041375;28;20045;-70
2022/04/10 03:50:50;;;;;;;10.88;3.45;;;1.60;99.90;;;;;;5041455;28;20096;-70
2022/04/10 03:53:16;;;;;;;15.93;4.32;;;1.70;99.90;;;;;;5042161;28;20033;-70
2022/04/10 03:55:42;;;;;;;14.55;4.25;;;1.70;99.90;;;;;;5043789;28;20072;-70
2022/04/10 03:58:08;;;;;;;13.98;4.55;;;1.70;99.90;;;;;;5054335;28;20037;-70
2022/04/10 04:00:34;;;;;;;12.15;4.40;;;1.70;99.90;;;;;;5033170;28;20152;-70
2022/04/10 04:03:00;;;;;;;20.85;4.40;;;1.70;99.90;;;;;;5057118;28;20079;-69
2022/04/10 04:05:25;;;;;;;17.38;4.03;;;1.70;99.90;;;;;;5020433;27;20055;-70
2022/04/10 04:07:51;;;;;;;17.70;4.60;;;1.70;99.90;;;;;;5060061;28;20430;-70
2022/04/10 04:10:23;;;;;;;10.90;3.55;;;1.70;99.90;;;;;;5065698;28;20141;-70
2022/04/10 04:12:48;;;;;;;15.85;4.20;;;1.60;99.90;;;;;;5065263;28;20040;-70
2022/04/10 04:15:20;;;;;;;15.98;3.10;;;1.60;99.90;;;;;;5063559;28;20102;-72
2022/04/10 04:17:45;;;;;;;15.88;3.88;;;1.60;99.90;;;;;;5062954;28;20032;-69
2022/04/10 04:20:13;;;;;;;18.17;3.88;;;1.60;99.90;;;;;;5062897;28;20027;-71
2022/04/10 04:22:51;;;;;;;13.68;4.00;;;1.60;99.90;;;;;;5062609;28;20036;-69
2022/04/10 04:25:22;;;;;;;19.70;4.60;;;1.60;99.90;;;;;;5061146;28;20033;-69
2022/04/10 04:27:48;;;;;;;20.83;4.40;;;1.60;99.90;;;;;;5059291;28;20082;-70
2022/04/10 04:30:16;;;;;;;16.38;3.83;;;1.50;99.90;;;;;;5060555;28;20037;-69
2022/04/10 04:32:50;;;;;;;19.70;4.28;;;1.50;99.90;;;;;;5065307;28;20073;-71
2022/04/10 04:35:16;;;;;;;13.25;3.33;;;1.50;99.90;;;;;;5061076;28;20044;-69
2022/04/10 04:37:42;;;;;;;22.15;3.95;;;1.50;99.90;;;;;;5065046;28;20044;-71
2022/04/10 04:40:17;;;;;;;8.48;4.07;;;1.40;99.90;;;;;;5063001;28;20127;-70
2022/04/10 04:42:43;;;;;;;13.00;4.00;;;1.50;99.90;;;;;;5078227;28;20115;-69
2022/04/10 04:45:11;;;;;;;34.20;4.68;;;1.50;99.90;;;;;;5062170;28;20103;-69
2022/04/10 04:47:37;;;;;;;20.75;4.13;;;1.50;99.90;;;;;;5063861;28;20140;-71
2022/04/10 04:50:12;;;;;;;15.98;3.58;;;1.50;99.90;;;;;;5065048;28;20032;-69
2022/04/10 04:52:41;;;;;;;23.75;4.43;;;1.50;99.90;;;;;;5063010;28;20036;-70
2022/04/10 04:55:10;;;;;;;8.38;3.35;;;1.50;99.90;;;;;;5062211;28;20041;-71
2022/04/10 04:57:39;;;;;;;15.82;3.42;;;1.50;99.90;;;;;;5061159;28;20046;-70
2022/04/10 05:00:13;;;;;;;21.13;5.43;;;1.60;99.90;;;;;;5064265;28;20108;-70
2022/04/10 05:02:42;;;;;;;22.10;4.22;;;1.60;99.90;;;;;;5050262;28;20487;-72
2022/04/10 05:05:08;;;;;;;14.32;3.67;;;1.60;99.90;;;;;;5060744;28;20070;-70
2022/04/10 05:07:43;;;;;;;10.77;3.30;;;1.60;99.90;;;;;;5062533;28;20084;-70
2022/04/10 05:10:13;;;;;;;21.30;3.75;;;1.60;99.90;;;;;;5063740;28;20036;-70
2022/04/10 05:12:44;;;;;;;25.33;4.22;;;1.60;99.90;;;;;;5058255;28;20040;-71
2022/04/10 05:15:10;;;;;;;16.60;3.35;;;1.60;99.90;;;;;;5059416;28;20029;-70
2022/04/10 05:17:41;;;;;;;14.95;4.72;;;1.70;99.90;;;;;;5063314;28;20050;-69
2022/04/10 05:20:10;;;;;;;20.67;4.30;;;1.70;99.90;;;;;;5061698;28;20029;-70
2022/04/10 05:22:47;;;;;;;22.27;4.45;;;1.70;99.90;;;;;;5058977;28;20083;-71
2022/04/10 05:25:18;;;;;;;15.52;3.67;;;1.80;99.90;;;;;;5059380;28;20033;-69
2022/04/10 05:27:51;;;;;;;18.88;4.10;;;1.80;99.90;;;;;;5060064;28;20039;-69
2022/04/10 05:30:22;;;;;;;14.05;2.88;;;1.90;99.90;;;;;;5061980;28;20202;-71
2022/04/10 05:32:51;;;;;;;24.85;4.15;;;1.90;99.90;;;;;;5063353;28;20066;-70
2022/04/10 05:35:25;;;;;;;20.98;4.72;;;1.80;99.90;;;;;;5062725;28;20076;-72
2022/04/10 05:37:51;;;;;;;16.08;4.00;;;1.80;99.90;;;;;;5063753;28;20644;-69
2022/04/10 05:40:27;;;;;;;22.88;4.50;;;1.80;99.90;;;;;;5063145;28;20036;-69
2022/04/10 05:42:56;;;;;;;;;;;1.90;99.90;;;;;;5064338;28;20425;-69
2022/04/10 05:45:22;;;;;;;25.87;4.93;;;1.80;99.90;;;;;;5063066;28;19927;-69
2022/04/10 05:47:50;;;;;;;16.42;3.38;;;1.80;99.90;;;;;;5062935;28;20484;-70
2022/04/10 05:50:18;;;;;;;14.98;3.45;;;1.90;99.90;;;;;;5063880;28;20037;-70
2022/04/10 05:52:51;;;;;;;24.23;3.78;;;1.80;99.90;;;;;;5063195;28;20132;-71
2022/04/10 05:55:24;;;;;;;19.45;3.65;;;1.90;99.90;;;;;;5063117;28;20040;-70
2022/04/10 05:58:09;;;;;;;20.73;4.00;;;1.80;99.90;;;;;;5063089;28;20033;-71
2022/04/10 06:00:36;;;;;;;17.58;4.20;;;2.00;99.90;;;;;;5056242;28;20063;-71
2022/04/10 06:03:03;;;;;;;19.95;3.30;;;2.00;99.90;;;;;;5061190;28;20032;-71
2022/04/10 06:05:32;;;;;;;21.13;3.53;;;2.00;99.90;;;;;;5059259;28;20099;-69
2022/04/10 06:07:58;;;;;;;16.75;3.35;;;2.00;99.90;;;;;;5060046;28;20024;-70
2022/04/10 06:10:28;;;;;;;15.32;2.63;;;2.10;99.90;;;;;;5060249;28;20036;-70
2022/04/10 06:13:12;;;;;;;16.65;3.20;;;2.00;99.90;;;;;;5050958;28;20633;-70
2022/04/10 06:15:43;;;;;;;14.55;3.28;;;1.90;99.90;;;;;;5054651;28;20124;-71
2022/04/10 06:18:11;;;;;;;11.95;2.78;;;2.00;99.90;;;;;;5060483;28;20036;-70
2022/04/10 06:20:42;;;;;;;17.27;3.08;;;2.10;99.90;;;;;;5062536;28;20143;-72
2022/04/10 06:23:14;;;;;;;13.25;2.90;;;2.10;99.90;;;;;;5057262;28;20033;-69
2022/04/10 06:25:40;;;;;;;14.20;3.28;;;2.20;99.90;;;;;;5058008;28;20036;-72
2022/04/10 06:28:11;;;;;;;11.50;3.00;;;2.40;99.90;;;;;;5061734;28;20042;-72
2022/04/10 06:30:37;;;;;;;11.75;2.80;;;2.90;99.90;;;;;;5054523;28;20135;-75
2022/04/10 06:33:03;;;;;;;11.38;2.92;;;3.10;99.90;;;;;;5061978;28;20127;-71
2022/04/10 06:35:28;;;;;;;17.55;3.53;;;3.10;99.90;;;;;;5056866;28;20228;-71
2022/04/10 06:37:54;;;;;;;14.07;2.33;;;3.00;99.90;;;;;;5061620;28;20032;-68
2022/04/10 06:40:19;;;;;;;14.68;3.28;;;3.10;99.90;;;;;;5063211;28;20024;-69
2022/04/10 06:42:45;;;;;;;18.15;3.63;;;3.10;99.90;;;;;;5056555;28;20047;-68
2022/04/10 06:45:11;;;;;;;11.25;2.47;;;3.30;99.90;;;;;;5041272;28;20053;-69
2022/04/10 06:47:36;;;;;;;14.35;4.30;;;3.40;99.90;;;;;;5042752;28;20123;-70
2022/04/10 06:50:02;;;;;;;15.05;3.70;;;3.40;99.90;;;;;;5062750;28;20040;-68
2022/04/10 06:52:28;;;;;;;15.57;2.72;;;3.60;99.90;;;;;;5062401;28;20047;-70
2022/04/10 06:54:54;;;;;;;23.52;2.95;;;3.70;99.90;;;;;;5061890;28;20052;-69
2022/04/10 06:57:19;;;;;;;14.07;2.53;;;3.90;99.90;;;;;;5062115;28;20106;-70
2022/04/10 06:59:45;;;;;;;13.60;2.95;;;3.70;99.90;;;;;;5061954;28;20032;-68
2022/04/10 07:02:11;;;;;;;19.05;3.20;;;3.60;99.90;;;;;;5060194;28;20345;-68
2022/04/10 07:04:36;;;;;;;15.35;2.72;;;4.10;99.90;;;;;;5061456;28;20112;-71
2022/04/10 07:07:02;;;;;;;13.90;3.15;;;4.00;99.90;;;;;;5060010;28;20041;-69
2022/04/10 07:09:28;;;;;;;11.82;3.15;;;3.90;99.90;;;;;;5062352;28;20040;-68
2022/04/10 07:11:53;;;;;;;11.35;2.80;;;3.80;99.90;;;;;;5062126;28;20038;-70
2022/04/10 07:14:19;;;;;;;12.00;2.80;;;3.90;99.90;;;;;;5059736;28;20062;-71
2022/04/10 07:16:44;;;;;;;16.58;2.78;;;3.90;99.90;;;;;;5061275;28;20040;-68
2022/04/10 07:19:10;;;;;;;16.00;3.00;;;3.80;99.90;;;;;;5061890;28;20033;-70
2022/04/10 07:24:20;;;;;;;12.05;2.80;;;3.70;99.90;;;;;;5055657;28;20439;-70
2022/04/10 07:26:46;;;;;;;23.40;3.90;;;3.90;99.90;;;;;;5061583;28;20082;-69
2022/04/10 07:29:12;;;;;;;14.38;3.10;;;4.20;99.90;;;;;;5066598;28;20698;-69
2022/04/10 07:31:40;;;;;;;15.00;2.70;;;4.40;99.90;;;;;;5063628;28;20036;-69
2022/04/10 07:34:06;;;;;;;15.38;2.35;;;4.80;99.90;;;;;;5066504;28;20045;-68
2022/04/10 07:36:32;;;;;;;11.50;3.03;;;5.00;99.90;;;;;;5065312;28;20097;-70
2022/04/10 07:38:58;;;;;;;9.25;3.22;;;4.70;99.90;;;;;;5061898;28;20032;-68
2022/04/10 07:41:24;;;;;;;13.98;2.97;;;4.90;99.90;;;;;;5066043;28;20044;-69
2022/04/10 07:43:50;;;;;;;15.13;3.05;;;5.00;99.90;;;;;;5064429;28;20178;-68
2022/04/10 07:49:00;;;;;;;12.13;2.53;;;4.50;99.90;;;;;;5062237;28;20032;-70
2022/04/10 07:51:26;;;;;;;17.60;2.92;;;4.60;99.90;;;;;;5063292;28;20455;-69
2022/04/10 07:53:54;;;;;;;9.07;2.47;;;4.40;99.90;;;;;;5061694;28;20029;-69
2022/04/10 07:56:21;;;;;;;12.75;3.03;;;4.50;99.90;;;;;;5061578;28;20083;-68
2022/04/10 07:58:46;;;;;;;15.85;2.72;;;4.60;99.90;;;;;;5061460;28;20044;-68
2022/04/10 08:01:12;;;;;;;16.33;2.72;;;4.60;99.90;;;;;;5060845;28;20036;-68
2022/04/10 08:03:37;;;;;;;16.25;3.13;;;4.60;99.90;;;;;;5064281;28;20040;-68
2022/04/10 08:06:03;;;;;;;;;;;4.60;99.90;;;;;;5064120;28;20045;-68
2022/04/10 08:08:28;;;;;;;8.02;2.20;;;4.40;99.90;;;;;;5065945;28;20034;-68
2022/04/10 08:10:54;;;;;;;16.33;3.05;;;4.30;99.90;;;;;;5064972;28;20101;-68
2022/04/10 08:13:20;;;;;;;10.80;2.63;;;4.10;99.90;;;;;;5063836;28;20063;-68
2022/04/10 08:15:46;;;;;;;17.92;2.67;;;4.00;99.90;;;;;;5064867;28;20140;-68
2022/04/10 08:18:12;;;;;;;14.50;3.55;;;3.90;99.90;;;;;;5061371;28;20044;-68
2022/04/10 08:20:37;;;;;;;17.67;3.33;;;4.20;99.90;;;;;;5062389;28;20036;-68
2022/04/10 08:23:03;;;;;;;9.32;2.45;;;4.50;99.90;;;;;;5061893;28;20587;-68
2022/04/10 08:25:29;;;;;;;15.10;2.78;;;4.40;99.90;;;;;;5060949;28;20153;-68
2022/04/10 08:27:55;;;;;;;7.90;2.20;;;5.00;99.90;;;;;;5061544;28;20079;-68
2022/04/10 08:30:21;;;;;;;9.20;2.20;;;6.40;99.90;;;;;;5061144;28;20028;-68
2022/04/10 08:32:47;;;;;;;17.65;2.75;;;8.50;99.90;;;;;;5063236;28;20149;-68
2022/04/10 08:35:13;;;;;;;;;;;9.60;97.90;;;;;;5062944;28;20036;-68
2022/04/10 08:37:39;;;;;;;11.05;1.92;;;10.00;93.80;;;;;;5065747;28;20003;-69
2022/04/10 08:40:05;;;;;;;12.80;2.00;;;9.80;95.50;;;;;;5064936;28;20043;-69
2022/04/10 08:42:31;;;;;;;8.77;2.17;;;9.50;95.70;;;;;;5065485;28;20037;-69
2022/04/10 08:44:58;;;;;;;8.43;1.95;;;8.60;98.10;;;;;;5065015;28;20040;-69
2022/04/10 08:47:25;;;;;;;12.93;2.13;;;7.80;97.70;;;;;;5063921;28;20540;-70
2022/04/10 08:49:52;;;;;;;7.75;1.80;;;7.00;99.90;;;;;;5065024;28;20041;-70
2022/04/10 08:52:20;;;;;;;12.35;2.20;;;6.50;99.90;;;;;;5065979;28;20037;-69
2022/04/10 08:54:46;;;;;;;9.75;2.85;;;;;;;;;;5062125;28;20041;-70
2022/04/10 08:57:13;;;;;;;13.85;2.63;;;;;;;;;;5058405;28;20058;-71
2022/04/10 08:59:39;;;;;;;16.50;2.58;;;;;;;;;;5061932;28;20040;-70
2022/04/10 09:02:05;;;;;;;8.15;1.45;;;;;;;;;;5063588;28;20123;-69
2022/04/10 09:04:32;;;;;;;9.32;2.38;;;;;;;;;;5063312;28;20046;-70
2022/04/10 09:06:59;;;;;;;10.90;1.98;;;;;;;;;;5064081;28;20416;-70
2022/04/10 09:09:25;;;;;;;12.77;2.13;;;;;;;;;;5064225;28;20036;-69
2022/04/10 09:11:52;;;;;;;6.93;2.17;;;;;;;;;;5064600;28;20123;-68
2022/04/10 09:14:25;;;;;;;10.50;1.67;;;;;;;;;;5064467;28;20051;-70
2022/04/10 09:17:12;;;;;;;14.15;2.20;;;;;;;;;;5065027;28;20040;-69
2022/04/10 09:19:39;;;;;;;9.93;2.63;;;;;;;;;;5064685;28;20040;-68
2022/04/10 09:22:20;;;;;;;18.65;1.50;;;;;;;;;;5058554;28;20048;-70
2022/04/10 09:25:01;;;;;;;8.73;1.60;;;;;;;;;;5042261;28;20037;-69
2022/04/10 09:27:31;;;;;;;8.75;2.58;;;;;;;;;;5055532;28;20614;-69
2022/04/10 09:29:58;;;;;;;11.00;2.17;;;;;;;;;;5058848;28;20039;-68
2022/04/10 09:32:36;;;;;;;15.57;2.38;;;;;;;;;;5063873;28;20085;-68
2022/04/10 09:35:03;;;;;;;12.13;3.17;;;;;;;;;;5061142;28;20044;-70
2022/04/10 09:37:30;;;;;;;8.13;2.47;;;;;;;;;;5063356;28;20044;-68
2022/04/10 09:40:16;;;;;;;7.47;1.83;;;;;;;;;;5063918;28;20543;-68
2022/04/10 09:42:42;;;;;;;7.90;1.98;;;;;;;;;;5044292;28;20052;-68
2022/04/10 09:45:26;;;;;;;8.75;1.60;;;;;;;;;;5043703;28;20051;-69
2022/04/10 09:47:52;;;;;;;12.77;2.33;;;;;;;;;;5045212;28;20048;-69
2022/04/10 09:50:18;;;;;;;13.25;2.50;;;;;;;;;;5044796;28;20028;-69
2022/04/10 09:52:44;;;;;;;8.25;1.67;;;;;;;;;;5064374;28;20528;-70
2022/04/10 09:55:31;;;;;;;7.05;2.33;;;;;;;;;;5064357;28;20737;-68
2022/04/10 09:58:00;;;;;;;12.18;2.28;;;;;;;;;;5057585;28;20032;-69
2022/04/10 10:00:27;;;;;;;13.75;2.42;;;;;;;;;;5060327;28;20036;-70
2022/04/10 10:02:54;;;;;;;13.85;3.97;;;;;;;;;;5061969;28;20028;-67
2022/04/10 10:05:20;;;;;;;7.75;2.13;;;;;;;;;;5057457;28;20036;-71
2022/04/10 10:07:48;;;;;;;8.02;1.85;;;;;;;;;;5057656;28;20048;-69
2022/04/10 10:10:17;;;;;;;6.65;1.92;;;;;;;;;;5059593;28;20040;-68
2022/04/10 10:12:45;;;;;;;8.40;1.73;;;;;;;;;;5059729;28;20045;-68
2022/04/10 10:15:11;;;;;;;11.90;2.10;;;;;;;;;;5054007;28;20115;-68
2022/04/10 10:17:38;;;;;;;8.63;2.78;;;;;;;;;;5061544;28;20044;-69
2022/04/10 10:20:06;;;;;;;8.60;2.17;;;;;;;;;;5063771;28;20063;-68
2022/04/10 10:22:32;;;;;;;7.30;1.95;;;;;;;;;;5063509;28;20036;-68
2022/04/10 10:25:00;;;;;;;8.48;2.35;;;;;;;;;;5061177;28;20585;-68
2022/04/10 10:27:45;;;;;;;7.80;2.45;;;;;;;;;;5062876;28;20126;-70
2022/04/10 10:30:30;;;;;;;7.00;1.98;;;;;;;;;;5062733;28;20099;-67
2022/04/10 10:32:58;;;;;;;11.10;2.05;;;;;;;;;;5060251;28;20071;-67
2022/04/10 10:35:27;;;;;;;6.82;1.90;;;;;;;;;;5059580;28;20102;-67
2022/04/10 10:37:54;;;;;;;7.13;1.75;;;;;;;;;;5058067;28;20040;-67
2022/04/10 10:40:20;;;;;;;13.27;2.00;;;;;;;;;;5060647;28;20480;-67
2022/04/10 10:42:49;;;;;;;7.25;1.85;;;;;;;;;;5061083;28;20052;-68
2022/04/10 10:45:33;;;;;;;10.48;2.33;;;;;;;;;;5060170;28;20539;-69
2022/04/10 10:48:23;;;;;;;9.75;2.53;;;;;;;;;;5061189;28;20036;-69
2022/04/10 10:50:53;;;;;;;7.28;2.22;;;;;;;;;;5087015;28;20041;-70
2022/04/10 10:53:38;;;;;;;11.35;2.22;;;;;;;;;;5061712;28;20097;-70
2022/04/10 10:56:05;;;;;;;6.70;2.00;;;;;;;;;;5051131;28;20091;-70
2022/04/10 10:58:31;;;;;;;7.35;1.80;;;;;;;;;;5059421;28;20734;-70
2022/04/10 11:01:04;;;;;;;8.70;2.03;;;;;;;;;;5058118;28;20051;-71
2022/04/10 11:03:30;;;;;;;5.95;1.88;;;;;;;;;;5061062;28;20737;-69
2022/04/10 11:06:06;;;;;;;12.98;2.15;;;;;;;;;;5059608;28;20605;-73
2022/04/10 11:08:41;;;;;;;9.23;2.13;;;;;;;;;;5060621;28;20060;-70
2022/04/10 11:11:07;;;;;;;8.13;2.10;;;;;;;;;;5062786;28;20040;-69
2022/04/10 11:13:42;;;;;;;5.78;1.90;;;;;;;;;;5061523;28;20036;-70
2022/04/10 11:16:10;;;;;;;5.28;1.60;;;;;;;;;;5058825;28;20074;-71
2022/04/10 11:18:41;;;;;;;6.35;1.80;;;;;;;;;;5059930;28;20040;-70
2022/04/10 11:21:13;;;;;;;8.60;2.15;;;;;;;;;;5063166;28;20084;-69
2022/04/10 11:23:41;;;;;;;7.10;1.70;;;;;;;;;;5061009;28;20048;-69
2022/04/10 11:26:10;;;;;;;10.10;2.28;;;;;;;;;;5058577;28;20524;-73
2022/04/10 11:28:55;;;;;;;9.55;2.38;;;;;;;;;;5054461;28;20044;-72
2022/04/10 11:31:31;;;;;;;6.80;2.00;;;;;;;;;;5062325;28;20098;-69
2022/04/10 11:34:07;;;;;;;12.00;2.03;;;;;;;;;;5059331;28;20064;-70
2022/04/10 11:36:33;;;;;;;;;;;;;;;;;;5057558;28;20094;-69
2022/04/10 11:39:09;;;;;;;6.82;1.90;;;;;;;;;;5057987;28;19985;-69
2022/04/10 11:41:36;;;;;;;7.03;2.22;;;;;;;;;;5051360;28;20039;-69
2022/04/10 11:44:03;;;;;;;8.80;1.98;;;;;;;;;;5061451;28;20540;-72
2022/04/10 11:46:30;;;;;;;8.63;2.08;;;;;;;;;;5040650;28;20048;-68
2022/04/10 11:48:56;;;;;;;5.70;1.90;;;;;;;;;;5057642;28;20060;-69
2022/04/10 11:51:22;;;;;;;10.23;2.80;;;;;;;;;;5061823;28;20036;-69
2022/04/10 11:54:08;;;;;;;5.97;2.40;;;;;;;;;;5047370;28;20041;-69
2022/04/10 11:56:34;;;;;;;5.43;2.13;;;;;;;;;;5044348;28;20037;-70
2022/04/10 11:59:00;;;;;;;;;;;;;;;;;;5062660;28;20052;-68
2022/04/10 12:01:28;;;;;;;6.07;2.60;;;;;;;;;;5061949;28;19920;-68
2022/04/10 12:03:55;;;;;;;4.88;2.38;;;;;;;;;;5061702;28;20044;-70
2022/04/10 12:06:21;;;;;;;8.02;2.40;;;;;;;;;;5058070;28;20643;-70
2022/04/10 12:08:48;;;;;;;9.85;2.92;;;;;;;;;;5058526;28;20039;-69
2022/04/10 12:11:14;;;;;;;6.07;2.65;;;;;;;;;;5057485;28;20040;-70
2022/04/10 12:13:40;;;;;;;5.78;2.88;;;;;;;;;;5059098;28;20032;-69
2022/04/10 12:16:16;;;;;;;9.05;2.75;;;;;;;;;;5065695;28;20043;-71
2022/04/10 12:19:00;;;;;;;5.47;2.80;;;;;;;;;;5065328;28;20037;-71
2022/04/10 12:21:26;;;;;;;9.02;3.72;;;;;;;;;;5064320;28;20083;-68
2022/04/10 12:24:06;;;;;;;8.15;2.40;;;;;;;;;;5062062;28;20516;-70
2022/04/10 12:26:36;;;;;;;8.65;2.13;;;;;;;;;;5062685;28;20043;-71
2022/04/10 12:29:04;;;;;;;7.55;2.08;;;;;;;;;;5064430;28;20098;-69
2022/04/10 12:31:30;;;;;;;7.60;2.40;;;;;;;;;;5065016;28;20043;-65
2022/04/10 12:33:56;;;;;;;7.85;2.50;;;;;;;;;;5063066;28;20045;-72
2022/04/10 12:36:23;;;;;;;13.75;3.83;;;;;;;;;;5061259;28;20161;-68
2022/04/10 12:38:53;;;;;;;11.75;3.65;;;;;;;;;;5060897;28;20060;-70
2022/04/10 12:41:45;;;;;;;8.75;2.80;;;;;;;;;;5061010;28;20040;-71
2022/04/10 12:44:11;;;;;;;11.40;3.35;;;;;;;;;;5060384;28;20040;-69
2022/04/10 12:46:37;;;;;;;;;;;;;;;;;;5059228;28;20061;-73
2022/04/10 12:49:13;;;;;;;8.18;2.78;;;;;;;;;;5056223;28;19934;-70
2022/04/10 12:52:11;;;;;;;9.13;3.08;;;;;;;;;;5057722;28;20628;-71
2022/04/10 12:54:40;;;;;;;8.75;2.65;;;;;;;;;;5024731;28;20080;-72
2022/04/10 12:57:08;;;;;;;6.00;2.55;;;;;;;;;;5063341;28;20116;-67
2022/04/10 12:59:35;;;;;;;9.88;2.72;;;;;;;;;;5064337;28;20116;-71
2022/04/10 13:02:01;;;;;;;7.90;2.75;;;;;;;;;;5063497;28;20540;-70
2022/04/10 13:04:29;;;;;;;6.57;2.70;;;;;;;;;;5061299;28;20055;-71
2022/04/10 13:06:55;;;;;;;6.70;2.50;;;;;;;;;;5059770;28;20081;-69
2022/04/10 13:09:21;;;;;;;11.10;3.17;;;;;;;;;;5061671;28;20272;-72
2022/04/10 13:11:48;;;;;;;10.18;2.97;;;;;;;;;;5053901;28;20693;-69
2022/04/10 13:14:15;;;;;;;3.55;2.00;;;;;;;;;;5057205;28;20090;-71
2022/04/10 13:16:42;;;;;;;10.07;2.75;;;;;;;;;;5062723;28;20048;-69
2022/04/10 13:19:14;;;;;;;10.63;2.70;;;;;;;;;;5064796;28;20112;-70
2022/04/10 13:21:42;;;;;;;9.27;2.67;;;;;;;;;;5064294;28;20075;-70
2022/04/10 13:24:09;;;;;;;6.07;2.03;;;;;;;;;;5063416;28;20060;-71
2022/04/10 13:26:36;;;;;;;4.43;2.20;;;;;;;;;;5064143;28;20127;-70
2022/04/10 13:29:04;;;;;;;5.72;2.45;;;;;;;;;;5062954;28;20036;-72
2022/04/10 13:31:30;;;;;;;6.05;2.25;;;;;;;;;;5063924;28;20614;-71
2022/04/10 13:33:56;;;;;;;5.30;2.05;;;;;;;;;;5061592;28;20037;-70
2022/04/10 13:36:22;;;;;;;7.68;2.08;;;;;;;;;;5060673;28;20119;-70